Time;durP1;ratioP1;P1;durP2;ratioP2;P2;SDS_P1;SDS_P2;PMS_P1;PMS_P2;Temp;Humidity;BMP_temperature;BMP_pressure;BME280_temperature;BME280_humidity;BME280_pressure;Samples;Min_cycle;Max_cycle;Signal;HPM_P1;HPM_P2
2022/12/01 00:01:15;;;;;;;100.73;41.27;;;6.00;99.90;;;;;;5006846;28;20200;-60
2022/12/01 00:03:42;;;;;;;92.17;39.37;;;6.00;92.50;;;;;;5029222;28;20228;-61
2022/12/01 00:06:10;;;;;;;82.17;36.53;;;6.00;18.30;;;;;;5012911;28;20207;-61
2022/12/01 00:08:37;;;;;;;89.83;37.33;;;6.00;24.90;;;;;;5030474;28;20229;-61
2022/12/01 00:11:11;;;;;;;83.00;37.07;;;5.90;7.90;;;;;;5013373;28;20304;-58
2022/12/01 00:13:38;;;;;;;78.90;35.73;;;5.90;28.20;;;;;;5031730;28;20286;-62
2022/12/01 00:16:13;;;;;;;76.27;34.30;;;6.00;16.10;;;;;;5025758;28;20223;-59
2022/12/01 00:18:40;;;;;;;77.33;34.40;;;6.00;36.90;;;;;;5024791;28;20202;-61
2022/12/01 00:21:18;;;;;;;74.10;35.00;;;6.00;5.70;;;;;;5028181;28;20215;-60
2022/12/01 00:23:46;;;;;;;75.33;33.60;;;5.90;1.00;;;;;;5011222;28;20254;-61
2022/12/01 00:26:15;;;;;;;75.37;32.93;;;6.00;14.00;;;;;;5019056;28;20302;-60
2022/12/01 00:28:42;;;;;;;79.50;32.80;;;6.00;27.80;;;;;;5024044;28;20231;-62
2022/12/01 00:31:10;;;;;;;80.13;32.47;;;5.90;21.30;;;;;;5029761;28;20210;-60
2022/12/01 00:33:38;;;;;;;85.20;32.80;;;6.00;68.80;;;;;;5027717;28;20203;-61
2022/12/01 00:36:06;;;;;;;78.53;31.60;;;6.00;98.60;;;;;;5040404;28;20899;-60
2022/12/01 00:38:33;;;;;;;74.80;32.27;;;5.90;98.80;;;;;;5026683;28;20274;-60
2022/12/01 00:41:01;;;;;;;82.17;32.67;;;5.90;75.60;;;;;;5027760;28;20205;-60
2022/12/01 00:43:28;;;;;;;74.47;30.97;;;5.90;37.90;;;;;;5026520;28;20187;-59
2022/12/01 00:45:55;;;;;;;80.37;31.13;;;5.90;41.90;;;;;;5032979;28;20226;-64
2022/12/01 00:48:22;;;;;;;76.07;30.47;;;5.90;35.90;;;;;;5032804;28;20231;-66
2022/12/01 00:50:51;;;;;;;73.70;30.20;;;5.90;41.40;;;;;;5024145;28;20274;-58
2022/12/01 00:53:18;;;;;;;84.23;33.87;;;5.90;27.80;;;;;;5045394;28;20241;-61
2022/12/01 00:55:45;;;;;;;72.23;28.83;;;5.90;89.30;;;;;;5031768;28;20215;-61
2022/12/01 00:58:12;;;;;;;73.67;30.83;;;5.80;11.70;;;;;;5007199;28;20696;-58
2022/12/01 01:00:41;;;;;;;80.80;30.67;;;5.80;1.00;;;;;;5032959;28;20206;-61
2022/12/01 01:03:09;;;;;;;73.50;30.33;;;5.80;1.00;;;;;;5033211;28;20188;-61
2022/12/01 01:05:37;;;;;;;68.77;29.00;;;5.80;1.00;;;;;;5030793;28;20199;-60
2022/12/01 01:08:09;;;;;;;72.33;28.20;;;5.90;1.00;;;;;;5032557;28;20215;-59
2022/12/01 01:10:45;;;;;;;70.80;29.80;;;5.80;1.00;;;;;;5034492;28;20794;-59
2022/12/01 01:13:13;;;;;;;76.87;30.57;;;5.80;1.00;;;;;;5028302;28;20263;-60
2022/12/01 01:15:40;;;;;;;77.70;30.97;;;5.80;1.00;;;;;;5031004;28;20203;-60
2022/12/01 01:18:09;;;;;;;71.83;30.87;;;5.80;1.00;;;;;;5028099;28;20197;-60
2022/12/01 01:20:36;;;;;;;72.03;32.90;;;5.80;1.00;;;;;;5029668;28;20204;-60
2022/12/01 01:23:03;;;;;;;72.03;31.00;;;5.90;1.00;;;;;;5029193;28;20210;-60
2022/12/01 01:25:31;;;;;;;86.23;33.53;;;5.90;1.00;;;;;;5022850;28;20714;-61
2022/12/01 01:27:58;;;;;;;93.67;35.93;;;5.80;1.00;;;;;;5028299;28;20988;-59
2022/12/01 01:30:25;;;;;;;96.13;34.87;;;5.90;10.30;;;;;;5032263;28;20212;-60
2022/12/01 01:32:53;;;;;;;87.63;34.57;;;5.80;62.10;;;;;;5029877;28;20216;-59
2022/12/01 01:35:20;;;;;;;86.97;34.83;;;5.90;98.50;;;;;;5026741;28;20663;-63
2022/12/01 01:37:48;;;;;;;90.70;34.90;;;5.90;99.90;;;;;;5033234;28;20245;-61
2022/12/01 01:40:16;;;;;;;81.73;31.73;;;5.90;83.30;;;;;;5034004;28;20192;-60
2022/12/01 01:42:43;;;;;;;89.77;32.30;;;5.80;4.80;;;;;;5032099;28;20205;-59
2022/12/01 01:45:24;;;;;;;78.77;30.80;;;5.80;1.00;;;;;;5032632;28;20226;-60
2022/12/01 01:47:52;;;;;;;78.47;30.80;;;5.80;1.00;;;;;;5035697;28;20249;-61
2022/12/01 01:50:23;;;;;;;69.73;30.07;;;5.80;1.00;;;;;;5032819;28;20319;-59
2022/12/01 01:53:00;;;;;;;72.83;29.47;;;5.90;1.00;;;;;;5036388;28;20200;-62
2022/12/01 01:55:30;;;;;;;70.07;29.73;;;5.80;1.00;;;;;;5031138;28;20278;-62
2022/12/01 01:57:58;;;;;;;69.00;28.77;;;5.80;1.00;;;;;;5030568;28;20230;-71
2022/12/01 02:00:25;;;;;;;64.53;30.47;;;5.80;1.00;;;;;;5026552;28;20624;-62
2022/12/01 02:02:52;;;;;;;75.37;31.17;;;5.80;1.00;;;;;;5032928;28;20188;-62
2022/12/01 02:05:26;;;;;;;81.73;35.50;;;5.90;1.00;;;;;;5029979;28;20207;-60
2022/12/01 02:07:55;;;;;;;77.77;33.63;;;5.90;1.00;;;;;;5036273;28;20250;-62
2022/12/01 02:10:36;;;;;;;85.20;34.37;;;5.90;1.00;;;;;;5029955;28;20222;-62
2022/12/01 02:13:30;;;;;;;73.67;32.37;;;5.90;1.00;;;;;;5027189;28;20271;-63
2022/12/01 02:16:13;;;;;;;85.03;33.47;;;5.80;1.00;;;;;;5027592;28;20196;-63
2022/12/01 02:19:06;;;;;;;84.13;33.60;;;5.80;1.00;;;;;;5031790;28;20212;-62
2022/12/01 02:22:24;;;;;;;83.07;33.13;;;5.80;1.00;;;;;;5036267;28;20297;-63
2022/12/01 02:25:17;;;;;;;83.87;31.87;;;5.80;1.00;;;;;;5029757;28;20222;-62
2022/12/01 02:28:10;;;;;;;79.20;32.33;;;5.80;1.00;;;;;;5028155;28;20200;-62
2022/12/01 02:31:00;;;;;;;74.87;31.23;;;5.80;7.30;;;;;;5033393;28;20224;-64
2022/12/01 02:33:31;;;;;;;76.03;34.37;;;5.80;1.00;;;;;;5032422;28;20184;-62
2022/12/01 02:36:14;;;;;;;80.37;33.40;;;5.80;1.00;;;;;;5032027;28;20271;-62
2022/12/01 02:38:48;;;;;;;80.13;34.00;;;5.80;1.00;;;;;;5031629;28;20203;-63
2022/12/01 02:41:21;;;;;;;87.80;34.87;;;5.80;1.00;;;;;;5032127;28;20214;-61
2022/12/01 02:43:56;;;;;;;77.07;33.93;;;5.80;1.00;;;;;;5030325;28;20826;-63
2022/12/01 02:46:23;;;;;;;68.23;32.03;;;5.80;1.00;;;;;;5030183;28;20191;-62
2022/12/01 02:48:53;;;;;;;78.67;33.73;;;5.70;1.00;;;;;;5033614;28;20218;-62
2022/12/01 02:51:27;;;;;;;71.80;32.40;;;5.70;1.00;;;;;;5025551;28;20825;-61
2022/12/01 02:53:57;;;;;;;73.00;30.63;;;5.70;1.00;;;;;;5031102;28;20322;-62
2022/12/01 02:56:24;;;;;;;62.63;28.47;;;5.90;1.00;;;;;;5030936;28;20220;-62
2022/12/01 02:58:51;;;;;;;59.87;26.87;;;5.70;1.00;;;;;;5031317;28;20558;-64
2022/12/01 03:01:37;;;;;;;59.13;27.03;;;5.70;1.00;;;;;;5030747;28;20199;-63
2022/12/01 03:04:41;;;;;;;61.37;29.27;;;5.70;1.00;;;;;;5033800;28;20196;-61
2022/12/01 03:07:19;;;;;;;56.90;26.23;;;5.70;1.00;;;;;;5031856;28;20278;-61
2022/12/01 03:09:59;;;;;;;54.17;27.47;;;5.70;1.00;;;;;;5031635;28;20319;-61
2022/12/01 03:12:41;;;;;;;49.83;25.47;;;5.70;1.00;;;;;;5033391;28;20192;-63
2022/12/01 03:15:30;;;;;;;55.93;27.23;;;5.70;1.00;;;;;;5031706;28;20188;-61
2022/12/01 03:18:22;;;;;;;58.63;26.87;;;5.70;1.00;;;;;;5012354;28;20203;-61
2022/12/01 03:20:48;;;;;;;53.47;25.87;;;5.70;1.00;;;;;;5030936;28;20188;-63
2022/12/01 03:23:20;;;;;;;55.60;25.63;;;5.70;1.00;;;;;;5025849;28;20210;-62
2022/12/01 03:25:50;;;;;;;57.80;26.73;;;5.80;1.00;;;;;;5028369;28;20191;-62
2022/12/01 03:28:22;;;;;;;54.97;25.10;;;5.70;1.00;;;;;;5029717;28;20254;-62
2022/12/01 03:30:55;;;;;;;53.43;24.53;;;5.80;1.00;;;;;;5028644;28;20279;-63
2022/12/01 03:33:35;;;;;;;53.20;24.40;;;5.70;1.00;;;;;;5028580;28;20207;-62
2022/12/01 03:36:39;;;;;;;51.37;24.17;;;5.70;1.00;;;;;;5032490;28;20202;-63
2022/12/01 03:39:13;;;;;;;56.50;24.83;;;5.70;1.00;;;;;;5026673;28;20207;-61
2022/12/01 03:41:47;;;;;;;52.47;25.07;;;5.70;1.00;;;;;;5031143;28;20278;-61
2022/12/01 03:44:23;;;;;;;56.10;27.83;;;5.70;1.00;;;;;;5023534;28;20726;-61
2022/12/01 03:47:03;;;;;;;57.60;25.97;;;5.70;1.00;;;;;;5012701;28;20550;-62
2022/12/01 03:49:30;;;;;;;53.27;24.10;;;5.60;1.00;;;;;;5017972;28;20228;-62
2022/12/01 03:52:02;;;;;;;54.20;25.43;;;5.70;1.00;;;;;;5027740;28;20341;-61
2022/12/01 03:54:44;;;;;;;51.43;24.47;;;5.70;1.00;;;;;;5027039;28;20314;-62
2022/12/01 03:57:17;;;;;;;53.93;25.83;;;5.70;1.00;;;;;;5027290;28;20192;-62
2022/12/01 03:59:46;;;;;;;58.23;25.90;;;5.70;1.00;;;;;;5031555;28;20602;-59
2022/12/01 04:02:13;;;;;;;48.43;23.30;;;5.70;1.00;;;;;;5014260;28;20669;-60
2022/12/01 04:04:40;;;;;;;52.63;24.83;;;5.70;1.00;;;;;;5030339;28;20700;-59
2022/12/01 04:07:12;;;;;;;52.17;24.37;;;5.70;1.00;;;;;;5029875;28;20203;-62
2022/12/01 04:09:40;;;;;;;49.13;23.83;;;5.70;1.00;;;;;;5026309;28;20216;-61
2022/12/01 04:12:31;;;;;;;49.87;23.70;;;5.70;1.00;;;;;;5025898;28;20200;-62
2022/12/01 04:15:01;;;;;;;44.57;22.20;;;5.70;1.00;;;;;;5025565;28;20192;-61
2022/12/01 04:17:28;;;;;;;45.87;23.10;;;5.60;1.00;;;;;;5031948;28;20762;-63
2022/12/01 04:19:55;;;;;;;50.33;22.57;;;5.60;1.00;;;;;;5033360;28;20195;-62
2022/12/01 04:22:23;;;;;;;44.97;23.37;;;5.60;1.00;;;;;;5031457;28;20187;-63
2022/12/01 04:24:50;;;;;;;52.97;23.90;;;5.60;1.00;;;;;;5031479;28;20201;-61
2022/12/01 04:27:18;;;;;;;49.93;24.37;;;5.60;1.00;;;;;;5031063;28;20206;-62
2022/12/01 04:29:45;;;;;;;46.77;23.77;;;5.60;1.00;;;;;;5031081;28;20235;-61
2022/12/01 04:32:13;;;;;;;51.53;23.80;;;5.60;1.00;;;;;;5043108;28;20613;-64
2022/12/01 04:34:40;;;;;;;50.40;24.53;;;5.60;1.00;;;;;;5029334;28;20196;-62
2022/12/01 04:37:08;;;;;;;49.97;23.57;;;5.60;1.00;;;;;;5028648;28;20191;-61
2022/12/01 04:39:36;;;;;;;48.37;23.60;;;5.60;1.00;;;;;;5032627;28;20663;-61
2022/12/01 04:42:03;;;;;;;54.77;25.23;;;5.60;1.00;;;;;;5029656;28;20703;-61
2022/12/01 04:44:30;;;;;;;53.80;24.37;;;5.60;1.00;;;;;;5032485;28;20529;-62
2022/12/01 04:47:02;;;;;;;61.47;25.67;;;5.60;1.00;;;;;;5028947;28;20269;-61
2022/12/01 04:49:29;;;;;;;57.90;26.83;;;5.60;1.00;;;;;;5025787;28;20207;-62
2022/12/01 04:51:56;;;;;;;54.57;24.93;;;5.60;1.00;;;;;;5027974;28;20232;-61
2022/12/01 04:54:24;;;;;;;53.17;24.40;;;5.60;1.00;;;;;;5031236;28;20274;-62
2022/12/01 04:56:50;;;;;;;55.60;25.10;;;5.60;1.00;;;;;;5043315;28;20543;-62
2022/12/01 04:59:17;;;;;;;50.20;23.73;;;5.50;1.00;;;;;;5030424;28;20293;-62
2022/12/01 05:01:46;;;;;;;50.07;23.93;;;5.50;1.00;;;;;;5030382;28;20286;-62
2022/12/01 05:04:14;;;;;;;57.80;25.27;;;5.50;1.00;;;;;;5030874;28;20191;-62
2022/12/01 05:06:42;;;;;;;52.10;24.97;;;5.60;1.00;;;;;;5031423;28;20202;-62
2022/12/01 05:09:13;;;;;;;55.77;24.60;;;5.60;1.00;;;;;;5011491;28;20311;-63
2022/12/01 05:11:43;;;;;;;49.03;23.93;;;5.50;1.00;;;;;;5026217;28;20225;-61
2022/12/01 05:14:10;;;;;;;47.97;23.73;;;5.50;1.00;;;;;;5028509;28;20279;-64
2022/12/01 05:16:37;;;;;;;50.03;24.07;;;5.50;1.00;;;;;;5031265;28;20591;-63
2022/12/01 05:21:51;;;;;;;46.53;22.63;;;5.50;1.00;;;;;;5035194;28;20202;-64
2022/12/01 05:24:19;;;;;;;51.43;24.03;;;5.50;1.00;;;;;;5029638;28;20204;-64
2022/12/01 05:26:46;;;;;;;52.10;23.93;;;5.40;1.00;;;;;;5031095;28;20898;-62
2022/12/01 05:29:13;;;;;;;53.23;25.03;;;5.50;1.00;;;;;;5032610;28;20236;-63
2022/12/01 05:31:40;;;;;;;50.27;24.63;;;5.40;1.00;;;;;;5031910;28;20222;-62
2022/12/01 05:34:07;;;;;;;53.17;25.57;;;5.50;1.00;;;;;;5033417;28;20191;-63
2022/12/01 05:36:35;;;;;;;48.10;24.10;;;5.50;1.00;;;;;;5029612;28;20200;-61
2022/12/01 05:39:03;;;;;;;50.90;26.37;;;5.40;1.00;;;;;;5028889;28;20204;-62
2022/12/01 05:41:30;;;;;;;47.07;24.80;;;5.50;1.00;;;;;;5030777;28;20210;-62
2022/12/01 05:43:57;;;;;;;47.93;24.43;;;5.50;1.00;;;;;;5032531;28;20219;-62
2022/12/01 05:46:24;;;;;;;54.03;25.53;;;5.40;1.00;;;;;;5018800;28;20218;-62
2022/12/01 05:48:51;;;;;;;51.13;25.87;;;5.40;1.00;;;;;;5014480;28;20200;-63
2022/12/01 05:51:18;;;;;;;49.63;26.10;;;5.40;1.00;;;;;;5032636;28;20220;-64
2022/12/01 05:53:45;;;;;;;54.30;25.63;;;5.40;1.00;;;;;;5029047;28;20283;-62
2022/12/01 05:56:12;;;;;;;51.13;25.80;;;5.40;1.00;;;;;;5026419;28;20366;-63
2022/12/01 05:58:39;;;;;;;57.60;27.17;;;5.40;1.00;;;;;;5030223;28;20218;-61
2022/12/01 06:01:06;;;;;;;48.90;25.53;;;5.40;1.00;;;;;;5032622;28;20209;-62
2022/12/01 06:03:33;;;;;;;58.17;26.43;;;5.40;1.00;;;;;;5029254;28;20689;-63
2022/12/01 06:06:00;;;;;;;56.40;26.13;;;5.40;1.00;;;;;;5026551;28;20205;-63
2022/12/01 06:08:27;;;;;;;55.20;25.67;;;5.40;1.00;;;;;;5030255;28;20575;-62
2022/12/01 06:10:54;;;;;;;56.73;25.77;;;5.40;1.00;;;;;;5027937;28;20288;-62
2022/12/01 06:13:21;;;;;;;58.70;27.63;;;5.40;1.00;;;;;;5026446;28;20287;-61
2022/12/01 06:15:59;;;;;;;52.80;26.13;;;5.40;1.00;;;;;;5027954;28;20379;-62
2022/12/01 06:18:26;;;;;;;48.47;25.73;;;5.40;1.00;;;;;;5029489;28;20279;-62
2022/12/01 06:20:53;;;;;;;51.20;24.40;;;5.50;1.00;;;;;;5030695;28;20741;-62
2022/12/01 06:23:20;;;;;;;50.17;24.70;;;5.40;1.00;;;;;;5030154;28;20191;-61
2022/12/01 06:25:53;;;;;;;50.57;25.23;;;5.40;1.00;;;;;;5032475;28;20196;-63
2022/12/01 06:28:20;;;;;;;58.67;26.00;;;5.40;1.00;;;;;;5032410;28;20245;-62
2022/12/01 06:30:47;;;;;;;57.67;25.27;;;5.40;1.00;;;;;;5032321;28;20554;-62
2022/12/01 06:33:14;;;;;;;59.57;25.40;;;5.40;1.00;;;;;;5023804;28;20188;-61
2022/12/01 06:35:41;;;;;;;51.60;24.47;;;5.40;1.00;;;;;;5011569;28;20852;-62
2022/12/01 06:38:08;;;;;;;50.47;23.97;;;5.40;1.00;;;;;;5031259;28;20192;-64
2022/12/01 06:40:35;;;;;;;48.50;23.73;;;5.30;1.00;;;;;;5027424;28;20203;-61
2022/12/01 06:43:02;;;;;;;50.23;23.83;;;5.40;1.00;;;;;;5030851;28;20200;-62
2022/12/01 06:45:30;;;;;;;53.60;24.70;;;5.40;1.00;;;;;;5030752;28;20659;-62
2022/12/01 06:47:57;;;;;;;54.10;23.83;;;5.40;1.00;;;;;;5031318;28;20298;-62
2022/12/01 06:50:24;;;;;;;55.67;25.60;;;5.40;1.00;;;;;;5031504;28;20196;-62
2022/12/01 06:52:51;;;;;;;51.17;23.83;;;5.40;1.00;;;;;;5031159;28;20562;-63
2022/12/01 06:55:18;;;;;;;44.70;23.37;;;5.30;1.00;;;;;;5026786;28;20625;-63
2022/12/01 06:57:46;;;;;;;48.93;23.70;;;5.30;1.00;;;;;;5030139;28;20200;-63
2022/12/01 07:00:13;;;;;;;58.90;27.07;;;5.30;1.00;;;;;;5030749;28;20199;-63
2022/12/01 07:02:41;;;;;;;57.13;26.13;;;5.30;1.00;;;;;;5028877;28;20438;-61
2022/12/01 07:05:08;;;;;;;57.00;26.97;;;5.30;1.00;;;;;;5031453;28;20196;-61
2022/12/01 07:07:39;;;;;;;63.43;28.43;;;5.30;1.00;;;;;;5030824;28;20639;-63
2022/12/01 07:10:08;;;;;;;64.83;28.07;;;5.20;1.00;;;;;;5031359;28;20220;-61
2022/12/01 07:12:35;;;;;;;55.73;26.80;;;5.30;1.00;;;;;;5033804;28;20231;-62
2022/12/01 07:15:03;;;;;;;68.03;28.90;;;5.30;1.00;;;;;;5030100;28;20278;-62
2022/12/01 07:17:30;;;;;;;60.33;27.57;;;5.30;1.00;;;;;;5011431;28;20188;-65
2022/12/01 07:19:57;;;;;;;65.20;30.00;;;5.30;1.00;;;;;;5029772;28;20196;-62
2022/12/01 07:22:24;;;;;;;61.47;29.30;;;5.30;1.00;;;;;;5026025;28;20200;-64
2022/12/01 07:24:58;;;;;;;69.47;29.73;;;5.30;1.00;;;;;;5029412;28;20849;-65
2022/12/01 07:27:28;;;;;;;72.03;32.00;;;5.30;1.00;;;;;;5025057;28;20200;-63
2022/12/01 07:29:55;;;;;;;70.03;31.17;;;5.20;1.00;;;;;;5014704;28;20231;-63
2022/12/01 07:32:22;;;;;;;68.90;31.53;;;5.30;1.00;;;;;;5030289;28;20208;-63
2022/12/01 07:34:49;;;;;;;71.80;32.17;;;5.30;1.00;;;;;;5028014;28;20189;-62
2022/12/01 07:37:17;;;;;;;74.63;33.70;;;5.20;1.00;;;;;;5032144;28;20195;-63
2022/12/01 07:39:44;;;;;;;70.07;32.13;;;5.30;1.00;;;;;;5026695;28;20206;-70
2022/12/01 07:42:11;;;;;;;73.53;32.03;;;5.30;1.00;;;;;;5025366;28;20199;-63
2022/12/01 07:44:38;;;;;;;73.23;33.07;;;5.30;1.00;;;;;;5025507;28;20597;-63
2022/12/01 07:47:05;;;;;;;68.03;32.97;;;5.20;1.00;;;;;;5029459;28;20200;-62
2022/12/01 07:49:33;;;;;;;73.20;33.57;;;5.20;1.00;;;;;;5027421;28;20703;-62
2022/12/01 07:52:00;;;;;;;66.27;32.30;;;5.30;1.00;;;;;;5027558;28;20637;-63
2022/12/01 07:54:26;;;;;;;69.93;34.13;;;5.30;1.00;;;;;;5010625;28;20206;-62
2022/12/01 07:56:53;;;;;;;70.73;31.37;;;5.30;1.00;;;;;;5015238;28;20196;-62
2022/12/01 07:59:20;;;;;;;78.00;33.90;;;5.40;1.00;;;;;;5014435;28;20200;-64
2022/12/01 08:01:47;;;;;;;77.33;34.93;;;5.40;1.00;;;;;;5028878;28;20199;-62
2022/12/01 08:04:14;;;;;;;78.80;35.67;;;5.30;1.00;;;;;;5026996;28;20287;-69
2022/12/01 08:06:41;;;;;;;82.07;38.17;;;5.40;1.00;;;;;;5029831;28;20204;-62
2022/12/01 08:09:08;;;;;;;80.33;35.97;;;5.40;1.00;;;;;;5027445;28;20227;-62
2022/12/01 08:11:35;;;;;;;81.57;36.50;;;5.40;1.00;;;;;;5029394;28;20220;-62
2022/12/01 08:14:02;;;;;;;74.97;36.33;;;5.50;1.00;;;;;;5026878;28;22255;-63
2022/12/01 08:16:30;;;;;;;75.10;34.63;;;5.50;1.00;;;;;;5030451;28;20192;-62
2022/12/01 08:18:57;;;;;;;77.03;37.33;;;5.50;1.00;;;;;;5030226;28;20496;-62
2022/12/01 08:21:24;;;;;;;78.03;36.30;;;5.40;1.00;;;;;;5030275;28;20196;-62
2022/12/01 08:23:53;;;;;;;78.80;37.40;;;5.50;1.00;;;;;;5031909;28;20194;-62
2022/12/01 08:26:22;;;;;;;81.40;39.47;;;5.50;99.90;;;;;;5030039;28;20191;-62
2022/12/01 08:28:49;;;;;;;86.63;40.23;;;5.50;99.90;;;;;;5033890;28;20323;-63
2022/12/01 08:31:15;;;;;;;77.93;37.30;;;5.50;99.90;;;;;;5035853;28;20282;-63
2022/12/01 08:33:43;;;;;;;82.13;40.87;;;5.50;99.90;;;;;;5030116;28;20576;-63
2022/12/01 08:36:10;;;;;;;80.57;38.47;;;5.60;99.90;;;;;;5033564;28;21034;-62
2022/12/01 08:38:37;;;;;;;77.80;36.90;;;5.50;99.90;;;;;;5027561;28;20207;-63
2022/12/01 08:41:07;;;;;;;75.27;38.27;;;5.50;99.90;;;;;;5031130;28;20287;-63
2022/12/01 08:43:39;;;;;;;78.67;40.17;;;5.50;99.90;;;;;;5031621;28;20235;-62
2022/12/01 08:46:35;;;;;;;75.53;40.90;;;5.40;99.90;;;;;;5034872;28;20310;-64
2022/12/01 08:49:04;;;;;;;81.57;40.10;;;5.50;99.90;;;;;;5028386;28;20196;-63
2022/12/01 08:51:31;;;;;;;76.53;38.37;;;5.50;99.90;;;;;;5032025;28;20206;-63
2022/12/01 08:53:59;;;;;;;78.17;40.03;;;5.60;99.90;;;;;;5034453;28;20693;-63
2022/12/01 08:56:43;;;;;;;73.13;38.80;;;5.70;99.90;;;;;;5032052;28;20291;-64
2022/12/01 08:59:10;;;;;;;82.00;39.50;;;5.80;99.90;;;;;;5031555;28;20755;-62
2022/12/01 09:01:52;;;;;;;76.63;40.33;;;5.80;99.90;;;;;;5031266;28;20645;-63
2022/12/01 09:04:22;;;;;;;74.63;40.50;;;5.90;99.90;;;;;;5031621;28;20195;-63
2022/12/01 09:06:51;;;;;;;74.37;39.70;;;6.00;99.90;;;;;;5017367;28;20557;-64
2022/12/01 09:09:24;;;;;;;73.13;40.27;;;6.20;99.90;;;;;;5033551;28;20692;-63
2022/12/01 09:11:52;;;;;;;79.30;40.93;;;6.20;67.40;;;;;;5035361;28;20238;-62
2022/12/01 09:14:20;;;;;;;75.93;40.27;;;6.20;21.00;;;;;;5028558;28;20428;-63
2022/12/01 09:16:48;;;;;;;75.63;41.50;;;6.10;8.90;;;;;;5031753;28;20207;-62
2022/12/01 09:19:17;;;;;;;76.80;41.07;;;6.20;10.10;;;;;;5031675;28;20620;-61
2022/12/01 09:21:51;;;;;;;77.90;42.93;;;6.20;1.50;;;;;;5031696;28;20197;-62
2022/12/01 09:24:18;;;;;;;75.50;42.27;;;6.30;1.00;;;;;;5033507;28;20210;-61
2022/12/01 09:26:45;;;;;;;77.77;41.77;;;6.30;1.00;;;;;;5033572;28;20200;-62
2022/12/01 09:29:14;;;;;;;74.83;41.13;;;6.30;1.00;;;;;;5027660;28;20816;-63
2022/12/01 09:31:41;;;;;;;74.03;41.67;;;6.30;1.00;;;;;;5034682;28;20365;-61
2022/12/01 09:34:14;;;;;;;82.20;43.73;;;6.40;1.00;;;;;;5027496;28;20274;-61
2022/12/01 09:36:43;;;;;;;79.37;42.23;;;6.20;1.00;;;;;;5028420;28;20195;-63
2022/12/01 09:39:15;;;;;;;76.40;42.00;;;6.30;1.00;;;;;;5030230;28;20714;-63
2022/12/01 09:42:12;;;;;;;73.67;41.53;;;6.30;1.00;;;;;;5034031;28;20539;-63
2022/12/01 09:44:52;;;;;;;76.73;41.27;;;6.30;1.00;;;;;;5027964;28;20257;-62
2022/12/01 09:47:25;;;;;;;78.90;44.73;;;6.50;1.00;;;;;;5030702;28;20311;-62
2022/12/01 09:49:55;;;;;;;77.83;42.00;;;6.70;1.00;;;;;;5029953;28;20202;-63
2022/12/01 09:52:25;;;;;;;72.00;41.50;;;6.70;1.00;;;;;;5031819;28;20242;-62
2022/12/01 09:54:54;;;;;;;73.67;43.40;;;6.70;1.00;;;;;;5015330;28;20200;-62
2022/12/01 09:57:28;;;;;;;73.40;42.17;;;6.90;1.00;;;;;;5032726;28;20187;-63
2022/12/01 09:59:57;;;;;;;67.67;40.53;;;7.10;1.00;;;;;;5031904;28;20201;-62
2022/12/01 10:02:28;;;;;;;76.47;41.13;;;6.90;1.00;;;;;;5032531;28;20214;-61
2022/12/01 10:04:58;;;;;;;70.40;41.03;;;6.80;1.00;;;;;;5028935;28;20211;-62
2022/12/01 10:07:33;;;;;;;72.77;42.80;;;7.00;1.00;;;;;;5032695;28;20192;-62
2022/12/01 10:10:11;;;;;;;68.20;41.97;;;6.90;1.00;;;;;;5027150;28;20708;-62
2022/12/01 10:12:41;;;;;;;68.77;39.67;;;6.70;1.00;;;;;;5011567;28;20674;-63
2022/12/01 10:15:24;;;;;;;71.60;40.87;;;6.80;1.00;;;;;;5026767;28;20185;-61
2022/12/01 10:18:33;;;;;;;71.87;39.93;;;6.70;1.00;;;;;;5031647;28;20675;-62
2022/12/01 10:21:12;;;;;;;73.50;41.60;;;6.60;1.00;;;;;;5029234;28;20683;-62
2022/12/01 10:24:08;;;;;;;71.53;40.83;;;6.50;1.00;;;;;;5026000;28;20188;-62
2022/12/01 10:26:38;;;;;;;72.93;42.87;;;6.60;1.00;;;;;;5030778;28;20551;-62
2022/12/01 10:29:19;;;;;;;72.47;43.53;;;6.60;1.00;;;;;;5033600;28;20631;-62
2022/12/01 10:31:52;;;;;;;73.87;41.93;;;6.50;1.00;;;;;;5032364;28;20389;-63
2022/12/01 10:34:28;;;;;;;74.37;43.13;;;6.40;1.00;;;;;;5031474;28;20269;-62
2022/12/01 10:36:56;;;;;;;71.60;41.43;;;6.40;1.00;;;;;;5029746;28;20206;-62
2022/12/01 10:39:35;;;;;;;69.60;39.97;;;6.30;1.00;;;;;;5025201;28;20199;-63
2022/12/01 10:42:26;;;;;;;73.40;42.87;;;6.30;1.00;;;;;;5029563;28;20219;-62
2022/12/01 10:44:55;;;;;;;69.60;41.70;;;6.30;1.00;;;;;;5032294;28;20692;-63
2022/12/01 10:47:24;;;;;;;66.93;39.80;;;6.70;1.00;;;;;;5031635;28;20191;-63
2022/12/01 10:49:51;;;;;;;67.67;41.50;;;6.70;1.00;;;;;;5032650;28;20181;-68
2022/12/01 10:52:32;;;;;;;66.63;39.90;;;7.10;1.00;;;;;;5030890;28;20560;-64
2022/12/01 10:55:01;;;;;;;61.60;37.97;;;7.40;1.00;;;;;;5015305;28;20590;-64
2022/12/01 10:57:29;;;;;;;64.13;37.17;;;7.40;1.00;;;;;;5031568;28;20187;-64
2022/12/01 11:00:07;;;;;;;63.87;39.80;;;7.30;1.00;;;;;;5029217;28;20274;-63
2022/12/01 11:02:35;;;;;;;63.23;39.80;;;7.10;1.00;;;;;;5026456;28;20759;-64
2022/12/01 11:05:05;;;;;;;58.30;34.83;;;7.10;1.00;;;;;;5026585;28;20687;-62
2022/12/01 11:07:40;;;;;;;60.67;38.13;;;7.10;1.00;;;;;;5031715;28;20196;-62
2022/12/01 11:10:26;;;;;;;53.53;34.57;;;7.00;1.00;;;;;;5010980;28;20270;-63
2022/12/01 11:12:53;;;;;;;59.97;36.93;;;7.00;1.00;;;;;;5019176;28;20219;-63
2022/12/01 11:15:25;;;;;;;59.67;36.93;;;7.10;1.00;;;;;;5012934;28;20198;-63
2022/12/01 11:18:01;;;;;;;57.33;35.23;;;6.90;1.00;;;;;;5042642;28;20282;-63
2022/12/01 11:20:38;;;;;;;52.00;32.80;;;6.80;1.00;;;;;;5023135;28;20215;-64
2022/12/01 11:23:19;;;;;;;52.37;33.37;;;6.70;1.00;;;;;;5030208;28;20222;-63
2022/12/01 11:26:13;;;;;;;55.57;36.17;;;6.70;1.00;;;;;;5028621;28;20192;-63
2022/12/01 11:28:57;;;;;;;56.60;33.43;;;6.70;1.00;;;;;;5030393;28;20234;-62
2022/12/01 11:31:44;;;;;;;49.17;31.97;;;6.70;1.00;;;;;;5022905;28;20683;-63
2022/12/01 11:34:28;;;;;;;48.30;31.93;;;6.60;1.00;;;;;;5031375;28;20242;-62
2022/12/01 11:36:59;;;;;;;51.57;32.17;;;6.60;1.00;;;;;;5012731;28;20291;-63
2022/12/01 11:39:39;;;;;;;50.70;32.70;;;6.60;1.00;;;;;;5031196;28;20577;-63
2022/12/01 11:42:26;;;;;;;52.27;32.67;;;6.60;1.00;;;;;;5025523;28;20204;-63
2022/12/01 11:45:19;;;;;;;51.70;33.77;;;6.60;1.00;;;;;;5020623;28;20202;-63
2022/12/01 11:48:16;;;;;;;52.20;33.83;;;6.70;1.00;;;;;;5011524;28;20204;-63
2022/12/01 11:51:21;;;;;;;51.83;33.43;;;6.60;1.00;;;;;;5028659;28;20386;-63
2022/12/01 11:53:48;;;;;;;48.90;31.57;;;6.50;1.00;;;;;;5025506;28;20759;-64
2022/12/01 11:56:22;;;;;;;55.67;33.43;;;6.40;1.00;;;;;;5031530;28;20278;-63
2022/12/01 11:59:01;;;;;;;52.17;32.53;;;6.50;1.00;;;;;;5015468;28;20206;-63
2022/12/01 12:01:40;;;;;;;46.07;29.13;;;6.60;1.00;;;;;;5014148;28;20394;-63
2022/12/01 12:04:41;;;;;;;46.80;30.57;;;6.70;1.00;;;;;;5032130;28;20668;-62
2022/12/01 12:07:38;;;;;;;43.90;28.83;;;6.80;1.00;;;;;;5023596;28;20196;-63
2022/12/01 12:10:44;;;;;;;47.87;31.40;;;7.30;1.00;;;;;;5010569;28;20231;-67
2022/12/01 12:13:43;;;;;;;49.30;29.37;;;8.00;1.00;;;;;;5029340;28;20204;-65
2022/12/01 12:16:25;;;;;;;50.83;31.07;;;8.40;1.00;;;;;;5031637;28;20183;-65
2022/12/01 12:19:00;;;;;;;50.80;32.97;;;8.30;1.00;;;;;;5014853;28;20201;-63
2022/12/01 12:21:54;;;;;;;50.73;34.10;;;7.70;1.00;;;;;;5025183;28;20203;-63
2022/12/01 12:24:24;;;;;;;52.73;32.97;;;7.30;1.00;;;;;;5028762;28;20205;-66
2022/12/01 12:27:31;;;;;;;54.53;33.53;;;7.00;1.00;;;;;;5031288;28;20272;-61
2022/12/01 12:30:23;;;;;;;53.53;34.43;;;6.90;1.00;;;;;;5029481;28;20243;-62
2022/12/01 12:32:58;;;;;;;54.23;34.93;;;6.70;1.00;;;;;;5022881;28;20230;-63
2022/12/01 12:36:13;;;;;;;48.97;31.17;;;6.70;1.00;;;;;;5028184;28;20568;-63
2022/12/01 12:39:18;;;;;;;49.93;32.37;;;6.90;1.00;;;;;;5029360;28;20200;-64
2022/12/01 12:41:50;;;;;;;48.70;31.50;;;7.10;1.00;;;;;;5028168;28;20311;-62
2022/12/01 12:44:34;;;;;;;48.27;29.90;;;7.10;1.00;;;;;;5030104;28;20211;-63
2022/12/01 12:47:21;;;;;;;44.60;29.23;;;7.00;1.00;;;;;;5020166;28;20242;-63
2022/12/01 12:50:06;;;;;;;49.07;31.00;;;6.90;1.00;;;;;;5033196;28;20184;-64
2022/12/01 12:52:46;;;;;;;53.17;30.43;;;6.90;1.00;;;;;;5023647;28;21314;-64
2022/12/01 12:55:33;;;;;;;49.93;31.03;;;6.90;1.00;;;;;;5030799;28;20694;-63
2022/12/01 12:58:25;;;;;;;53.93;33.33;;;6.80;1.00;;;;;;5029906;28;20194;-65
2022/12/01 13:01:04;;;;;;;60.27;35.80;;;6.90;1.00;;;;;;5031893;28;20266;-63
2022/12/01 13:04:00;;;;;;;67.37;38.73;;;6.80;1.00;;;;;;5029895;28;20274;-63
2022/12/01 13:06:30;;;;;;;73.17;42.03;;;6.70;1.00;;;;;;5029958;28;20219;-62
2022/12/01 13:09:14;;;;;;;68.47;38.93;;;6.50;1.00;;;;;;5024119;28;20207;-63
2022/12/01 13:12:15;;;;;;;66.53;36.30;;;6.50;1.00;;;;;;5029623;28;20476;-62
2022/12/01 13:14:47;;;;;;;63.60;38.50;;;6.50;1.00;;;;;;5022550;28;20208;-62
2022/12/01 13:17:22;;;;;;;62.93;36.90;;;6.60;1.00;;;;;;5027313;28;20192;-62
2022/12/01 13:19:50;;;;;;;61.77;35.50;;;6.70;1.00;;;;;;5014964;28;20199;-62